createdAt,value
2023-06-27T00:00:35.752Z,61.20
2023-06-27T00:03:27.672Z,61.28
2023-06-27T00:06:01.892Z,61.41
2023-06-27T00:08:34.605Z,61.60
2023-06-27T00:11:07.367Z,61.61
2023-06-27T00:13:42.626Z,61.60
2023-06-27T00:16:15.082Z,61.61
2023-06-27T00:18:50.209Z,61.77
2023-06-27T00:21:30.144Z,62.33
2023-06-27T00:24:02.240Z,62.68
2023-06-27T00:26:34.729Z,62.70
2023-06-27T00:29:07.529Z,61.34
2023-06-27T00:31:39.664Z,60.92
2023-06-27T00:34:11.705Z,60.26
2023-06-27T00:36:44.995Z,58.91
2023-06-27T00:39:16.858Z,58.30
2023-06-27T00:41:48.600Z,57.40
2023-06-27T00:44:20.427Z,56.78
2023-06-27T00:46:53.114Z,56.63
2023-06-27T00:49:25.055Z,56.06
2023-06-27T00:51:57.562Z,55.21
2023-06-27T00:54:29.717Z,54.71
2023-06-27T00:57:02.391Z,53.90
2023-06-27T00:59:34.862Z,53.33
2023-06-27T01:02:10.040Z,53.42
2023-06-27T01:04:41.924Z,53.27
2023-06-27T01:07:18.965Z,53.07
2023-06-27T01:09:53.584Z,53.39
2023-06-27T01:12:30.153Z,53.63
2023-06-27T01:15:03.896Z,54.03
2023-06-27T01:17:38.348Z,54.41
2023-06-27T01:20:12.360Z,54.82
2023-06-27T01:22:47.113Z,55.05
2023-06-27T01:25:19.579Z,55.46
2023-06-27T01:27:51.561Z,55.62
2023-06-27T01:30:23.431Z,55.93
2023-06-27T01:33:00.276Z,56.22
2023-06-27T01:35:35.548Z,56.35
2023-06-27T01:38:12.897Z,56.93
2023-06-27T01:40:45.505Z,57.40
2023-06-27T01:43:18.145Z,57.25
2023-06-27T01:45:50.076Z,57.62
2023-06-27T01:48:22.207Z,58.35
2023-06-27T01:50:56.778Z,58.42
2023-06-27T01:53:28.814Z,58.89
2023-06-27T01:56:00.822Z,58.72
2023-06-27T01:58:33.122Z,58.81
2023-06-27T02:01:05.016Z,59.04
2023-06-27T02:03:37.210Z,59.32
2023-06-27T02:06:09.108Z,59.64
2023-06-27T02:08:41.216Z,59.52
2023-06-27T02:11:13.131Z,59.53
2023-06-27T02:13:45.332Z,59.80
2023-06-27T02:16:17.134Z,59.67
2023-06-27T02:18:49.064Z,59.46
2023-06-27T02:21:20.986Z,59.53
2023-06-27T02:23:53.200Z,59.55
2023-06-27T02:26:25.070Z,59.59
2023-06-27T02:28:57.096Z,59.73
2023-06-27T02:31:29.119Z,59.81
2023-06-27T02:34:01.558Z,60.11
2023-06-27T02:36:33.790Z,60.27
2023-06-27T02:39:06.395Z,60.48
2023-06-27T02:41:38.331Z,61.11
2023-06-27T02:44:10.331Z,62.06
2023-06-27T02:46:42.255Z,63.14
2023-06-27T02:49:14.226Z,62.75
2023-06-27T02:51:46.038Z,63.05
2023-06-27T02:54:17.980Z,64.11
2023-06-27T02:56:49.955Z,64.78
2023-06-27T02:59:21.910Z,67.35
2023-06-27T03:01:53.927Z,66.52
2023-06-27T03:04:26.543Z,66.90
2023-06-27T03:06:59.126Z,66.87
2023-06-27T03:09:31.406Z,67.75
2023-06-27T03:12:03.273Z,67.68
2023-06-27T03:14:35.203Z,67.67
2023-06-27T03:17:07.365Z,67.61
2023-06-27T03:19:44.636Z,67.72
2023-06-27T03:22:16.731Z,67.81
2023-06-27T03:24:49.268Z,67.75
2023-06-27T03:27:23.691Z,68.33
2023-06-27T03:29:55.833Z,68.54
2023-06-27T03:32:27.654Z,68.59
2023-06-27T03:34:59.712Z,68.70
2023-06-27T03:37:31.660Z,69.12
2023-06-27T03:40:04.318Z,69.73
2023-06-27T03:42:36.164Z,72.85
2023-06-27T03:45:09.819Z,72.45
2023-06-27T03:47:43.755Z,72.02
2023-06-27T03:50:15.935Z,73.48
2023-06-27T03:52:47.750Z,75.53
2023-06-27T03:55:19.891Z,74.88
2023-06-27T03:57:51.755Z,74.97
2023-06-27T04:00:23.646Z,74.43
2023-06-27T04:02:55.500Z,74.75
2023-06-27T04:05:27.661Z,74.62
2023-06-27T04:07:59.470Z,75.65
2023-06-27T04:10:33.570Z,76.39
2023-06-27T04:13:05.420Z,77.20
2023-06-27T04:15:41.165Z,76.85
2023-06-27T04:18:13.333Z,77.64
2023-06-27T04:20:45.168Z,77.31
2023-06-27T04:23:17.035Z,77.30
2023-06-27T04:26:04.439Z,77.88
2023-06-27T04:28:36.857Z,77.90
2023-06-27T04:31:10.701Z,78.18
2023-06-27T04:33:46.758Z,78.06
2023-06-27T04:36:21.724Z,77.88
2023-06-27T04:38:53.763Z,78.53
2023-06-27T04:41:30.339Z,78.31
2023-06-27T04:44:02.718Z,79.82
2023-06-27T04:46:34.821Z,80.11
2023-06-27T04:49:06.812Z,79.75
2023-06-27T04:51:40.504Z,80.57
2023-06-27T04:54:12.486Z,80.77
2023-06-27T04:56:45.054Z,80.65
2023-06-27T04:59:18.658Z,80.61
2023-06-27T05:01:50.625Z,79.86
2023-06-27T05:04:22.519Z,79.51
2023-06-27T05:06:55.393Z,79.38
2023-06-27T05:09:27.345Z,79.44
2023-06-27T05:11:59.526Z,79.52
2023-06-27T05:14:31.243Z,79.60
2023-06-27T05:17:03.439Z,79.93
2023-06-27T05:19:35.359Z,79.39
2023-06-27T05:22:07.698Z,79.74
2023-06-27T05:24:39.726Z,79.76
2023-06-27T05:27:12.000Z,79.99
2023-06-27T05:29:43.784Z,80.77
2023-06-27T05:32:15.880Z,80.51
2023-06-27T05:34:49.816Z,80.55
2023-06-27T05:37:22.022Z,80.81
2023-06-27T05:39:54.010Z,81.13
2023-06-27T05:42:25.893Z,82.53
2023-06-27T05:44:57.661Z,84.39
2023-06-27T05:47:29.727Z,83.93
2023-06-27T05:50:02.171Z,84.13
2023-06-27T05:52:34.343Z,84.24
2023-06-27T05:55:07.326Z,85.42
2023-06-27T05:57:39.290Z,87.57
2023-06-27T06:00:14.827Z,89.15
2023-06-27T06:02:47.312Z,89.24
2023-06-27T06:05:19.725Z,92.80
2023-06-27T06:07:51.863Z,91.59
2023-06-27T06:10:25.468Z,90.54
2023-06-27T06:12:57.268Z,89.31
2023-06-27T06:15:29.368Z,88.84
2023-06-27T06:18:01.303Z,87.41
2023-06-27T06:20:33.316Z,87.45
2023-06-27T06:23:05.490Z,87.00
2023-06-27T06:25:37.706Z,87.44
2023-06-27T06:28:09.772Z,88.84
2023-06-27T06:30:41.640Z,89.26
2023-06-27T06:33:13.868Z,90.95
2023-06-27T06:35:45.638Z,91.34
2023-06-27T06:38:17.584Z,92.30
2023-06-27T06:40:49.426Z,91.45
2023-06-27T06:43:21.335Z,91.90
2023-06-27T06:45:55.281Z,91.77
2023-06-27T06:48:27.289Z,92.49
2023-06-27T06:51:00.211Z,93.21
2023-06-27T06:53:32.571Z,93.44
2023-06-27T06:56:04.508Z,93.27
2023-06-27T06:58:37.611Z,92.14
2023-06-27T07:01:09.814Z,93.67
2023-06-27T07:03:42.757Z,93.00
2023-06-27T07:06:14.654Z,92.37
2023-06-27T07:08:46.577Z,91.57
2023-06-27T07:11:18.575Z,91.79
2023-06-27T07:13:51.016Z,91.74
2023-06-27T07:16:23.009Z,91.69
2023-06-27T07:18:55.290Z,90.83
2023-06-27T07:21:27.013Z,90.69
2023-06-27T07:23:58.941Z,90.81
2023-06-27T07:26:30.870Z,90.20
2023-06-27T07:29:02.835Z,89.71
2023-06-27T07:31:34.799Z,89.96
2023-06-27T07:34:07.016Z,88.61
2023-06-27T07:36:39.735Z,87.63
2023-06-27T07:39:11.767Z,86.32
2023-06-27T07:41:43.989Z,85.61
2023-06-27T07:44:15.979Z,85.49
2023-06-27T07:46:47.825Z,84.80
2023-06-27T07:49:19.915Z,83.51
2023-06-27T07:51:52.898Z,83.21
2023-06-27T07:54:27.971Z,82.50
2023-06-27T07:56:59.870Z,80.82
2023-06-27T07:59:32.069Z,79.24
2023-06-27T08:02:04.013Z,79.72
2023-06-27T08:04:35.943Z,79.78
2023-06-27T08:07:11.460Z,79.45
2023-06-27T08:09:44.211Z,78.24
2023-06-27T08:12:16.160Z,77.16
2023-06-27T08:14:48.875Z,75.12
2023-06-27T08:17:21.002Z,76.29
2023-06-27T08:19:53.007Z,75.86
2023-06-27T08:22:25.448Z,74.04
2023-06-27T08:24:57.459Z,73.89
2023-06-27T08:27:29.659Z,73.35
2023-06-27T08:30:01.540Z,72.55
2023-06-27T08:32:33.664Z,71.22
2023-06-27T08:35:08.103Z,70.96
2023-06-27T08:37:40.178Z,71.80
2023-06-27T08:40:15.580Z,71.82
2023-06-27T08:42:47.498Z,70.63
2023-06-27T08:45:19.649Z,69.53
2023-06-27T08:47:52.269Z,68.52
2023-06-27T08:50:25.566Z,67.24
2023-06-27T08:53:00.059Z,65.58
2023-06-27T08:55:37.266Z,65.27
2023-06-27T08:58:12.993Z,65.06
2023-06-27T09:00:44.913Z,64.94
2023-06-27T09:03:17.049Z,64.48
2023-06-27T09:05:49.851Z,64.31
2023-06-27T09:08:22.872Z,63.36
2023-06-27T09:10:55.123Z,61.30
2023-06-27T09:13:27.637Z,60.49
2023-06-27T09:15:59.768Z,60.34
2023-06-27T09:18:31.731Z,60.98
2023-06-27T09:21:04.326Z,61.15
2023-06-27T09:23:36.612Z,60.16
2023-06-27T09:26:12.679Z,58.92
2023-06-27T09:28:52.012Z,58.29
2023-06-27T09:31:24.752Z,59.57
2023-06-27T09:34:09.537Z,58.84
2023-06-27T09:39:18.802Z,56.26
2023-06-27T09:41:51.820Z,57.04
2023-06-27T09:44:26.452Z,56.16
2023-06-27T09:46:59.356Z,55.77
2023-06-27T09:49:33.147Z,56.20
2023-06-27T09:52:07.874Z,54.46
2023-06-27T09:54:44.549Z,54.40
2023-06-27T09:57:22.782Z,54.39
2023-06-27T10:00:00.730Z,54.49
2023-06-27T10:02:34.474Z,54.46
2023-06-27T10:05:05.408Z,54.77
2023-06-27T10:07:38.046Z,54.02
2023-06-27T10:10:12.422Z,53.10
2023-06-27T10:12:45.177Z,51.53
2023-06-27T10:15:18.136Z,50.59
2023-06-27T10:17:50.719Z,49.89
2023-06-27T10:20:23.131Z,48.88
2023-06-27T10:22:55.577Z,48.19
2023-06-27T10:25:29.041Z,47.09
2023-06-27T10:28:09.295Z,48.65
2023-06-27T10:30:48.793Z,49.51
2023-06-27T10:33:30.354Z,47.31
2023-06-27T10:36:04.643Z,45.79
2023-06-27T10:38:37.658Z,45.77
2023-06-27T10:41:35.008Z,46.34
2023-06-27T10:44:14.090Z,44.98
2023-06-27T10:46:47.153Z,43.60
2023-06-27T10:49:18.855Z,44.87
2023-06-27T10:51:50.598Z,44.60
2023-06-27T10:54:22.793Z,44.55
2023-06-27T10:56:57.931Z,43.18
2023-06-27T10:59:30.081Z,44.29
2023-06-27T11:02:06.140Z,44.98
2023-06-27T11:04:44.034Z,44.50
2023-06-27T11:07:20.526Z,42.54
2023-06-27T11:09:56.552Z,42.03
2023-06-27T11:12:37.881Z,42.32
2023-06-27T11:15:11.430Z,41.20
2023-06-27T11:17:43.385Z,41.55
2023-06-27T11:20:15.794Z,40.38
2023-06-27T11:22:48.568Z,39.85
2023-06-27T11:25:22.002Z,39.69
2023-06-27T11:28:00.566Z,39.86
2023-06-27T11:30:34.649Z,40.73
2023-06-27T11:33:07.084Z,40.47
2023-06-27T11:35:41.017Z,40.24
2023-06-27T11:38:14.191Z,40.10
2023-06-27T11:40:53.292Z,40.35
2023-06-27T11:43:25.434Z,41.72
2023-06-27T11:45:58.585Z,42.61
2023-06-27T11:48:30.758Z,43.36
2023-06-27T11:51:08.774Z,44.93
2023-06-27T11:53:41.770Z,44.29
2023-06-27T11:56:22.019Z,43.51
2023-06-27T11:58:58.749Z,41.57
2023-06-27T12:01:34.635Z,41.03
2023-06-27T12:04:16.531Z,41.74
2023-06-27T12:06:50.273Z,43.04
2023-06-27T12:09:28.767Z,43.27
2023-06-27T12:12:05.152Z,44.47
2023-06-27T12:14:37.572Z,45.24
2023-06-27T12:17:23.541Z,44.74
2023-06-27T12:19:55.279Z,45.51
2023-06-27T12:22:27.190Z,45.52
2023-06-27T12:24:59.182Z,44.90
2023-06-27T12:27:37.362Z,45.30
2023-06-27T12:30:13.294Z,44.41
2023-06-27T12:32:45.215Z,43.18
2023-06-27T12:35:19.263Z,42.94
2023-06-27T12:37:51.615Z,43.16
2023-06-27T12:40:24.374Z,42.92
2023-06-27T12:42:59.512Z,43.01
2023-06-27T12:45:39.210Z,41.99
2023-06-27T12:48:14.297Z,42.06
2023-06-27T12:50:46.166Z,40.60
2023-06-27T12:53:18.622Z,40.57
2023-06-27T12:55:50.631Z,40.80
2023-06-27T12:58:22.521Z,40.46
2023-06-27T13:00:56.365Z,40.84
2023-06-27T13:03:28.377Z,40.36
2023-06-27T13:06:00.461Z,40.64
2023-06-27T13:08:32.371Z,39.80
2023-06-27T13:11:04.516Z,39.19
2023-06-27T13:13:37.842Z,38.97
2023-06-27T13:16:16.004Z,39.66
2023-06-27T13:18:48.416Z,40.52
2023-06-27T13:21:20.849Z,41.29
2023-06-27T13:23:53.581Z,40.75
2023-06-27T13:26:25.570Z,41.07
2023-06-27T13:28:58.014Z,39.03
2023-06-27T13:31:30.481Z,39.59
2023-06-27T13:34:02.699Z,39.98
2023-06-27T13:36:34.952Z,40.94
2023-06-27T13:39:07.134Z,42.15
2023-06-27T13:41:39.057Z,43.78
2023-06-27T13:44:12.572Z,45.44
2023-06-27T13:46:44.801Z,48.82
2023-06-27T13:49:16.711Z,53.43
2023-06-27T13:51:48.671Z,54.61
2023-06-27T13:54:20.682Z,57.49
2023-06-27T13:56:52.747Z,58.03
2023-06-27T13:59:24.740Z,57.56
2023-06-27T14:01:57.078Z,56.42
2023-06-27T14:04:28.871Z,56.62
2023-06-27T14:07:01.582Z,53.83
2023-06-27T14:09:33.697Z,52.80
2023-06-27T14:12:08.673Z,51.45
2023-06-27T14:14:40.659Z,49.77
2023-06-27T14:17:12.609Z,51.03
2023-06-27T14:19:44.831Z,51.42
2023-06-27T14:22:16.913Z,52.59
2023-06-27T14:24:49.165Z,53.77
2023-06-27T14:27:21.616Z,54.66
2023-06-27T14:29:53.617Z,54.41
2023-06-27T14:32:26.082Z,54.37
2023-06-27T14:34:58.103Z,54.35
2023-06-27T14:37:30.061Z,53.91
2023-06-27T14:40:02.060Z,53.08
2023-06-27T14:42:34.240Z,51.80
2023-06-27T14:45:07.126Z,50.77
2023-06-27T14:47:39.200Z,49.60
2023-06-27T14:50:12.538Z,48.75
2023-06-27T14:52:44.511Z,48.45
2023-06-27T14:55:16.571Z,47.44
2023-06-27T14:57:48.561Z,47.93
2023-06-27T15:00:21.531Z,47.43
2023-06-27T15:02:53.632Z,47.39
2023-06-27T15:05:26.225Z,47.71
2023-06-27T15:07:58.029Z,47.88
2023-06-27T15:10:30.246Z,48.62
2023-06-27T15:13:02.467Z,49.08
2023-06-27T15:15:34.678Z,49.25
2023-06-27T15:18:06.882Z,49.38
2023-06-27T15:20:39.076Z,50.00
2023-06-27T15:23:12.263Z,49.91
2023-06-27T15:25:47.234Z,49.32
2023-06-27T15:28:19.423Z,47.54
2023-06-27T15:30:51.589Z,47.40
2023-06-27T15:33:23.506Z,46.25
2023-06-27T15:35:55.543Z,44.56
2023-06-27T15:38:27.595Z,44.76
2023-06-27T15:41:01.182Z,45.19
2023-06-27T15:43:36.968Z,45.20
2023-06-27T15:46:09.041Z,45.70
2023-06-27T15:48:41.411Z,45.51
2023-06-27T15:51:13.250Z,45.52
2023-06-27T15:53:45.027Z,45.55
2023-06-27T15:56:18.005Z,44.80
2023-06-27T15:58:50.225Z,43.18
2023-06-27T16:01:22.125Z,42.14
2023-06-27T16:03:54.207Z,43.19
2023-06-27T16:06:27.793Z,43.93
2023-06-27T16:08:59.814Z,44.51
2023-06-27T16:11:32.740Z,44.56
2023-06-27T16:14:06.086Z,44.22
2023-06-27T16:16:36.758Z,44.27
2023-06-27T16:19:09.103Z,44.18
2023-06-27T16:21:41.818Z,43.50
2023-06-27T16:24:13.721Z,42.85
2023-06-27T16:26:46.327Z,43.89
2023-06-27T16:29:18.380Z,43.87
2023-06-27T16:31:51.664Z,44.32
2023-06-27T16:34:23.814Z,44.36
2023-06-27T16:36:55.747Z,44.50
2023-06-27T16:39:27.583Z,44.74
2023-06-27T16:41:59.560Z,45.48
2023-06-27T16:44:31.736Z,45.95
2023-06-27T16:47:03.908Z,45.94
2023-06-27T16:49:35.858Z,46.30
2023-06-27T16:52:09.529Z,47.04
2023-06-27T16:54:41.529Z,46.49
2023-06-27T16:57:13.673Z,44.86
2023-06-27T16:59:45.535Z,45.49
2023-06-27T17:02:17.562Z,46.64
2023-06-27T17:04:49.617Z,47.90
2023-06-27T17:07:21.835Z,48.39
2023-06-27T17:09:53.763Z,49.06
2023-06-27T17:12:26.062Z,49.35
2023-06-27T17:14:58.316Z,50.78
2023-06-27T17:17:30.154Z,51.65
2023-06-27T17:20:02.168Z,52.10
2023-06-27T17:22:34.106Z,52.47
2023-06-27T17:25:06.648Z,52.33
2023-06-27T17:27:38.866Z,52.45
2023-06-27T17:30:13.120Z,52.52
2023-06-27T17:32:47.302Z,52.73
2023-06-27T17:35:19.527Z,52.70
2023-06-27T17:37:51.325Z,52.77
2023-06-27T17:40:23.771Z,52.93
2023-06-27T17:42:55.847Z,53.33
2023-06-27T17:45:29.594Z,53.16
2023-06-27T17:48:02.276Z,53.38
2023-06-27T17:50:34.872Z,53.07
2023-06-27T17:53:07.377Z,53.05
2023-06-27T17:55:39.500Z,52.79
2023-06-27T17:58:12.216Z,52.68
2023-06-27T18:00:45.034Z,52.53
2023-06-27T18:03:17.498Z,51.76
2023-06-27T18:05:50.297Z,51.58
2023-06-27T18:08:27.233Z,51.32
2023-06-27T18:11:04.488Z,51.10
2023-06-27T18:13:37.031Z,51.13
2023-06-27T18:16:10.886Z,51.32
2023-06-27T18:18:41.837Z,51.32
2023-06-27T18:21:14.414Z,51.89
2023-06-27T18:23:47.138Z,53.02
2023-06-27T18:26:20.327Z,53.38
2023-06-27T18:28:52.474Z,55.08
2023-06-27T18:31:25.502Z,55.25
2023-06-27T18:33:57.790Z,55.91
2023-06-27T18:36:29.930Z,56.59
2023-06-27T18:39:06.385Z,57.10
2023-06-27T18:41:39.287Z,57.13
2023-06-27T18:44:11.958Z,57.47
2023-06-27T18:46:44.020Z,59.00
2023-06-27T18:49:16.213Z,59.49
2023-06-27T18:51:48.063Z,59.03
2023-06-27T18:54:20.057Z,58.91
2023-06-27T18:56:52.082Z,58.92
2023-06-27T18:59:24.233Z,58.71
2023-06-27T19:01:56.418Z,58.65
2023-06-27T19:04:28.831Z,58.80
2023-06-27T19:07:00.844Z,58.95
2023-06-27T19:09:32.701Z,59.22
2023-06-27T19:12:04.917Z,58.88
2023-06-27T19:14:36.908Z,59.27
2023-06-27T19:17:13.445Z,59.26
2023-06-27T19:19:50.990Z,59.08
2023-06-27T19:22:23.874Z,59.32
2023-06-27T19:24:56.492Z,59.26
2023-06-27T19:27:28.396Z,58.52
2023-06-27T19:30:00.413Z,58.47
2023-06-27T19:32:32.813Z,58.00
2023-06-27T19:35:04.761Z,57.66
2023-06-27T19:37:37.675Z,57.15
2023-06-27T19:40:11.940Z,56.70
2023-06-27T19:42:43.944Z,56.61
2023-06-27T19:45:16.048Z,56.56
2023-06-27T19:47:48.313Z,56.25
2023-06-27T19:50:20.713Z,56.29
2023-06-27T19:52:52.807Z,56.25
2023-06-27T19:55:25.290Z,56.09
2023-06-27T19:57:59.473Z,55.58
2023-06-27T20:00:31.617Z,55.46
2023-06-27T20:03:03.673Z,54.77
2023-06-27T20:05:40.314Z,54.35
2023-06-27T20:08:14.036Z,54.13
2023-06-27T20:10:46.018Z,54.28
2023-06-27T20:13:17.869Z,54.48
2023-06-27T20:15:51.003Z,54.56
2023-06-27T20:18:23.496Z,54.62
2023-06-27T20:20:55.549Z,54.34
2023-06-27T20:23:28.004Z,54.19
2023-06-27T20:25:59.932Z,54.17
2023-06-27T20:28:31.821Z,54.17
2023-06-27T20:31:03.917Z,54.18
2023-06-27T20:33:36.215Z,54.07
2023-06-27T20:36:08.965Z,54.14
2023-06-27T20:38:41.892Z,54.29
2023-06-27T20:41:16.430Z,54.39
2023-06-27T20:43:48.819Z,54.53
2023-06-27T20:46:20.686Z,54.75
2023-06-27T20:48:52.833Z,55.26
2023-06-27T20:51:24.540Z,55.12
2023-06-27T20:53:56.720Z,55.27
2023-06-27T20:56:28.768Z,55.40
2023-06-27T20:59:00.704Z,55.46
2023-06-27T21:01:34.114Z,55.64
2023-06-27T21:04:07.223Z,55.92
2023-06-27T21:06:39.149Z,56.19
2023-06-27T21:09:11.013Z,56.38
2023-06-27T21:11:43.454Z,56.54
2023-06-27T21:14:15.315Z,56.69
2023-06-27T21:16:47.038Z,56.65
2023-06-27T21:19:18.843Z,56.82
2023-06-27T21:21:51.409Z,57.09
2023-06-27T21:24:23.402Z,57.22
2023-06-27T21:26:55.474Z,57.37
2023-06-27T21:29:27.328Z,57.58
2023-06-27T21:31:59.534Z,57.81
2023-06-27T21:34:31.729Z,58.15
2023-06-27T21:37:03.727Z,58.53
2023-06-27T21:39:35.828Z,58.59
2023-06-27T21:42:08.871Z,59.00
2023-06-27T21:44:40.964Z,59.02
2023-06-27T21:47:13.033Z,59.14
2023-06-27T21:49:48.484Z,59.52
2023-06-27T21:52:21.025Z,59.34
2023-06-27T21:54:53.136Z,59.38
2023-06-27T21:57:25.306Z,59.69
2023-06-27T21:59:57.211Z,59.88
2023-06-27T22:02:30.823Z,59.64
2023-06-27T22:05:03.669Z,59.73
2023-06-27T22:07:36.198Z,59.60
2023-06-27T22:10:09.615Z,59.67
2023-06-27T22:12:41.959Z,59.67
2023-06-27T22:15:14.764Z,59.49
2023-06-27T22:17:49.811Z,59.58
2023-06-27T22:20:22.310Z,59.67
2023-06-27T22:22:57.990Z,59.90
2023-06-27T22:25:30.938Z,60.42
2023-06-27T22:28:03.809Z,60.34
2023-06-27T22:30:36.645Z,60.49
2023-06-27T22:33:08.749Z,61.12
2023-06-27T22:35:40.813Z,61.11
2023-06-27T22:38:13.152Z,61.29
2023-06-27T22:40:45.533Z,61.80
2023-06-27T22:43:17.577Z,62.01
2023-06-27T22:45:49.906Z,61.94
2023-06-27T22:48:22.138Z,62.39
2023-06-27T22:50:55.761Z,62.52
2023-06-27T22:53:28.611Z,62.80
2023-06-27T22:56:03.615Z,63.31
2023-06-27T22:58:35.939Z,63.83
2023-06-27T23:01:08.697Z,63.76
2023-06-27T23:03:41.024Z,64.37
2023-06-27T23:06:13.094Z,64.20
2023-06-27T23:08:45.523Z,64.58
2023-06-27T23:11:19.316Z,64.56
2023-06-27T23:13:53.035Z,64.84
2023-06-27T23:16:25.157Z,65.17
2023-06-27T23:18:59.803Z,65.37
2023-06-27T23:21:34.376Z,65.12
2023-06-27T23:24:10.299Z,65.14
2023-06-27T23:26:43.972Z,65.05
2023-06-27T23:29:18.033Z,65.20
2023-06-27T23:31:51.030Z,65.48
2023-06-27T23:34:24.745Z,65.23
2023-06-27T23:36:57.277Z,65.46
2023-06-27T23:39:29.371Z,66.45
2023-06-27T23:42:01.445Z,66.02
2023-06-27T23:44:33.479Z,66.34
2023-06-27T23:47:05.305Z,66.57
2023-06-27T23:49:37.606Z,66.25
2023-06-27T23:52:10.504Z,66.20
2023-06-27T23:54:42.476Z,66.62
2023-06-27T23:57:14.398Z,66.77
2023-06-27T23:59:46.402Z,67.27
